createdAt,value
2023-05-16T00:00:35.072Z,10.63
2023-05-16T00:01:38.164Z,10.66
2023-05-16T00:02:40.767Z,10.62
2023-05-16T00:03:43.313Z,10.55
2023-05-16T00:04:46.202Z,10.57
2023-05-16T00:05:48.389Z,10.57
2023-05-16T00:06:50.526Z,10.54
2023-05-16T00:07:52.770Z,10.57
2023-05-16T00:08:54.979Z,10.52
2023-05-16T00:09:57.223Z,10.52
2023-05-16T00:10:59.390Z,10.54
2023-05-16T00:12:01.518Z,10.52
2023-05-16T00:13:03.796Z,10.55
2023-05-16T00:14:05.999Z,10.58
2023-05-16T00:15:12.601Z,10.59
2023-05-16T00:16:15.205Z,10.48
2023-05-16T00:17:17.640Z,10.53
2023-05-16T00:18:19.950Z,10.48
2023-05-16T00:19:22.340Z,10.52
2023-05-16T00:20:26.995Z,10.56
2023-05-16T00:21:29.354Z,10.54
2023-05-16T00:22:31.582Z,10.49
2023-05-16T00:23:33.946Z,10.45
2023-05-16T00:24:36.258Z,10.46
2023-05-16T00:25:38.526Z,10.46
2023-05-16T00:26:40.731Z,10.48
2023-05-16T00:27:42.840Z,10.48
2023-05-16T00:28:45.014Z,10.46
2023-05-16T00:29:47.124Z,10.47
2023-05-16T00:30:49.372Z,10.44
2023-05-16T00:31:51.699Z,10.49
2023-05-16T00:32:55.737Z,10.54
2023-05-16T00:33:59.096Z,10.50
2023-05-16T00:35:01.272Z,10.50
2023-05-16T00:36:03.491Z,10.52
2023-05-16T00:37:05.840Z,10.49
2023-05-16T00:38:07.962Z,10.47
2023-05-16T00:39:11.648Z,10.50
2023-05-16T00:40:14.298Z,10.48
2023-05-16T00:41:18.192Z,10.51
2023-05-16T00:42:21.320Z,10.49
2023-05-16T00:43:23.535Z,10.36
2023-05-16T00:44:26.511Z,10.44
2023-05-16T00:45:28.803Z,10.44
2023-05-16T00:46:31.496Z,10.44
2023-05-16T00:47:33.855Z,10.46
2023-05-16T00:48:36.320Z,10.44
2023-05-16T00:49:38.804Z,10.44
2023-05-16T00:50:41.102Z,10.39
2023-05-16T00:51:43.348Z,10.41
2023-05-16T00:52:45.684Z,10.36
2023-05-16T00:53:48.132Z,10.35
2023-05-16T00:54:51.756Z,10.50
2023-05-16T00:55:55.535Z,10.44
2023-05-16T00:56:58.212Z,10.41
2023-05-16T00:58:00.381Z,10.37
2023-05-16T00:59:03.862Z,10.39
2023-05-16T01:00:10.656Z,10.51
2023-05-16T01:01:13.341Z,10.43
2023-05-16T01:02:15.901Z,10.40
2023-05-16T01:03:18.505Z,10.35
2023-05-16T01:04:21.287Z,10.33
2023-05-16T01:05:24.119Z,10.31
2023-05-16T01:06:26.720Z,10.30
2023-05-16T01:07:28.984Z,10.31
2023-05-16T01:08:31.130Z,10.27
2023-05-16T01:09:33.380Z,10.23
2023-05-16T01:11:34.616Z,10.40
2023-05-16T01:13:01.251Z,10.44
2023-05-16T01:14:29.284Z,10.47
2023-05-16T01:15:47.407Z,10.37
2023-05-16T01:17:04.630Z,10.44
2023-05-16T01:18:15.246Z,10.34
2023-05-16T01:19:38.824Z,10.43
2023-05-16T01:21:08.257Z,10.37
2023-05-16T01:22:17.197Z,10.34
2023-05-16T01:24:03.788Z,10.39
2023-05-16T01:25:33.107Z,10.38
2023-05-16T01:26:36.133Z,10.19
2023-05-16T01:27:39.134Z,10.24
2023-05-16T01:28:42.028Z,10.27
2023-05-16T01:29:44.250Z,10.24
2023-05-16T01:30:46.478Z,10.23
2023-05-16T01:31:48.771Z,10.19
2023-05-16T01:32:51.375Z,10.26
2023-05-16T01:33:53.646Z,10.26
2023-05-16T01:34:55.972Z,10.24
2023-05-16T01:36:10.843Z,10.37
2023-05-16T01:37:30.497Z,10.35
2023-05-16T01:38:50.151Z,10.45
2023-05-16T01:40:07.870Z,10.35
2023-05-16T01:41:39.187Z,10.35
2023-05-16T01:42:43.875Z,10.42
2023-05-16T01:43:49.720Z,10.38
2023-05-16T01:45:12.457Z,10.46
2023-05-16T01:46:21.192Z,10.27
2023-05-16T01:47:27.005Z,10.10
2023-05-16T01:48:35.641Z,10.20
2023-05-16T01:50:14.295Z,10.20
2023-05-16T01:51:16.907Z,9.93
2023-05-16T01:52:50.755Z,10.01
2023-05-16T01:53:57.607Z,9.93
2023-05-16T01:55:00.695Z,9.86
2023-05-16T01:56:04.538Z,9.82
2023-05-16T01:57:08.943Z,9.77
2023-05-16T01:58:12.449Z,9.73
2023-05-16T01:59:15.199Z,9.74
2023-05-16T02:00:17.429Z,9.70
2023-05-16T02:01:19.582Z,9.68
2023-05-16T02:02:21.820Z,9.65
2023-05-16T02:03:24.236Z,9.59
2023-05-16T02:04:26.706Z,9.56
2023-05-16T02:05:29.042Z,9.49
2023-05-16T02:06:31.666Z,9.54
2023-05-16T02:07:34.290Z,9.53
2023-05-16T02:08:36.472Z,9.47
2023-05-16T02:09:38.590Z,9.45
2023-05-16T02:10:42.654Z,9.40
2023-05-16T02:11:44.828Z,9.36
2023-05-16T02:12:46.979Z,9.34
2023-05-16T02:13:49.199Z,9.34
2023-05-16T02:14:51.368Z,9.31
2023-05-16T02:15:53.533Z,9.38
2023-05-16T02:16:55.802Z,9.32
2023-05-16T02:17:58.691Z,9.29
2023-05-16T02:19:01.185Z,9.26
2023-05-16T02:20:07.084Z,9.22
2023-05-16T02:21:09.424Z,9.19
2023-05-16T02:22:11.980Z,9.16
2023-05-16T02:23:14.291Z,9.15
2023-05-16T02:24:16.691Z,9.14
2023-05-16T02:25:19.115Z,9.09
2023-05-16T02:26:21.901Z,9.05
2023-05-16T02:27:24.028Z,9.03
2023-05-16T02:28:26.162Z,8.96
2023-05-16T02:29:28.290Z,8.89
2023-05-16T02:30:30.585Z,8.88
2023-05-16T02:31:34.776Z,8.93
2023-05-16T02:32:37.343Z,8.85
2023-05-16T02:33:39.739Z,8.79
2023-05-16T02:34:42.953Z,8.72
2023-05-16T02:35:45.129Z,8.73
2023-05-16T02:36:47.328Z,8.73
2023-05-16T02:37:49.507Z,8.73
2023-05-16T02:38:52.746Z,8.77
2023-05-16T02:39:57.690Z,8.66
2023-05-16T02:40:59.884Z,8.60
2023-05-16T02:42:02.036Z,8.57
2023-05-16T02:43:04.138Z,8.55
2023-05-16T02:44:06.268Z,8.51
2023-05-16T02:45:08.878Z,8.50
2023-05-16T02:46:30.894Z,8.66
2023-05-16T02:47:33.161Z,8.49
2023-05-16T02:48:35.330Z,8.47
2023-05-16T02:49:37.560Z,8.44
2023-05-16T02:50:40.576Z,8.43
2023-05-16T02:51:42.952Z,8.41
2023-05-16T02:52:45.082Z,8.42
2023-05-16T02:53:47.591Z,8.38
2023-05-16T02:55:09.413Z,8.33
2023-05-16T02:56:11.858Z,8.31
2023-05-16T02:57:15.730Z,8.30
2023-05-16T02:58:19.559Z,8.27
2023-05-16T02:59:22.179Z,8.28
2023-05-16T03:00:24.476Z,8.26
2023-05-16T03:01:26.798Z,8.22
2023-05-16T03:02:29.105Z,8.21
2023-05-16T03:03:31.662Z,8.20
2023-05-16T03:04:34.091Z,8.23
2023-05-16T03:05:36.381Z,8.20
2023-05-16T03:06:38.539Z,8.18
2023-05-16T03:07:41.233Z,8.23
2023-05-16T03:08:43.472Z,8.12
2023-05-16T03:09:45.676Z,8.09
2023-05-16T03:10:47.811Z,8.05
2023-05-16T03:11:49.959Z,8.05
2023-05-16T03:12:55.133Z,7.99
2023-05-16T03:14:01.527Z,8.03
2023-05-16T03:15:04.830Z,8.05
2023-05-16T03:16:07.206Z,8.05
2023-05-16T03:17:11.108Z,8.02
2023-05-16T03:18:13.319Z,7.96
2023-05-16T03:19:15.718Z,7.96
2023-05-16T03:20:18.036Z,7.98
2023-05-16T03:21:20.174Z,7.97
2023-05-16T03:22:22.485Z,7.98
2023-05-16T03:23:24.805Z,7.99
2023-05-16T03:24:27.128Z,7.99
2023-05-16T03:25:29.682Z,7.99
2023-05-16T03:26:32.062Z,7.95
2023-05-16T03:27:34.246Z,7.89
2023-05-16T03:28:37.278Z,7.96
2023-05-16T03:29:39.393Z,7.86
2023-05-16T03:30:41.944Z,7.87
2023-05-16T03:31:44.114Z,7.82
2023-05-16T03:32:46.635Z,7.83
2023-05-16T03:33:48.812Z,7.85
2023-05-16T03:34:51.001Z,7.82
2023-05-16T03:35:53.212Z,7.84
2023-05-16T03:36:55.649Z,7.83
2023-05-16T03:37:58.019Z,7.84
2023-05-16T03:39:00.209Z,7.82
2023-05-16T03:40:05.491Z,7.87
2023-05-16T03:41:07.627Z,7.85
2023-05-16T03:42:10.139Z,7.87
2023-05-16T03:43:12.306Z,7.86
2023-05-16T03:44:14.457Z,7.85
2023-05-16T03:45:16.681Z,7.84
2023-05-16T03:46:19.070Z,7.82
2023-05-16T03:47:21.475Z,7.85
2023-05-16T03:48:23.700Z,7.83
2023-05-16T03:49:28.519Z,7.88
2023-05-16T03:50:30.764Z,7.81
2023-05-16T03:51:33.297Z,7.83
2023-05-16T03:52:35.863Z,7.80
2023-05-16T03:53:38.011Z,7.75
2023-05-16T03:54:40.174Z,7.72
2023-05-16T03:55:42.355Z,7.68
2023-05-16T03:56:44.481Z,7.72
2023-05-16T03:57:47.867Z,7.76
2023-05-16T03:58:50.013Z,7.68
2023-05-16T03:59:52.189Z,7.69
2023-05-16T04:00:54.339Z,7.72
2023-05-16T04:01:56.642Z,7.70
2023-05-16T04:02:58.931Z,7.64
2023-05-16T04:04:01.290Z,7.63
2023-05-16T04:05:03.670Z,7.64
2023-05-16T04:06:07.372Z,7.79
2023-05-16T04:07:09.665Z,7.77
2023-05-16T04:08:11.971Z,7.78
2023-05-16T04:09:14.140Z,7.85
2023-05-16T04:10:16.376Z,7.86
2023-05-16T04:11:18.686Z,7.87
2023-05-16T04:12:20.861Z,7.88
2023-05-16T04:13:23.185Z,7.82
2023-05-16T04:14:25.501Z,7.81
2023-05-16T04:15:27.989Z,7.79
2023-05-16T04:16:30.501Z,7.80
2023-05-16T04:17:33.320Z,7.82
2023-05-16T04:18:35.659Z,7.85
2023-05-16T04:19:37.779Z,7.82
2023-05-16T04:20:39.960Z,7.80
2023-05-16T04:21:42.217Z,7.82
2023-05-16T04:22:44.387Z,7.85
2023-05-16T04:23:46.560Z,7.83
2023-05-16T04:24:49.254Z,7.81
2023-05-16T04:25:51.421Z,7.82
2023-05-16T04:26:53.593Z,7.85
2023-05-16T04:27:55.999Z,7.86
2023-05-16T04:29:00.081Z,7.86
2023-05-16T04:30:02.557Z,7.90
2023-05-16T04:31:04.730Z,7.87
2023-05-16T04:32:07.812Z,7.90
2023-05-16T04:33:09.996Z,7.95
2023-05-16T04:34:13.128Z,7.98
2023-05-16T04:35:15.298Z,8.00
2023-05-16T04:36:17.569Z,8.00
2023-05-16T04:37:19.865Z,8.00
2023-05-16T04:38:22.554Z,7.99
2023-05-16T04:39:24.760Z,7.98
2023-05-16T04:40:27.836Z,7.95
2023-05-16T04:41:30.426Z,7.96
2023-05-16T04:42:32.640Z,7.96
2023-05-16T04:43:35.160Z,8.01
2023-05-16T04:44:37.501Z,8.04
2023-05-16T04:45:39.665Z,8.06
2023-05-16T04:46:41.929Z,8.08
2023-05-16T04:47:44.227Z,8.07
2023-05-16T04:48:46.476Z,8.12
2023-05-16T04:49:48.590Z,8.10
2023-05-16T04:50:51.241Z,8.11
2023-05-16T04:51:53.384Z,8.13
2023-05-16T04:52:56.556Z,8.17
2023-05-16T04:53:58.800Z,8.19
2023-05-16T04:55:01.207Z,8.20
2023-05-16T04:56:05.783Z,8.24
2023-05-16T04:57:07.990Z,8.22
2023-05-16T04:58:10.303Z,8.24
2023-05-16T04:59:12.586Z,8.31
2023-05-16T05:00:16.322Z,8.36
2023-05-16T05:01:18.597Z,8.32
2023-05-16T05:02:20.818Z,8.31
2023-05-16T05:03:23.048Z,8.35
2023-05-16T05:04:25.207Z,8.36
2023-05-16T05:05:27.744Z,8.41
2023-05-16T05:06:30.162Z,8.43
2023-05-16T05:07:35.750Z,8.63
2023-05-16T05:08:38.234Z,8.51
2023-05-16T05:09:40.650Z,8.57
2023-05-16T05:10:42.813Z,8.58
2023-05-16T05:11:45.322Z,8.63
2023-05-16T05:12:47.488Z,8.65
2023-05-16T05:13:51.969Z,8.71
2023-05-16T05:14:55.195Z,8.78
2023-05-16T05:15:57.445Z,8.81
2023-05-16T05:16:59.698Z,8.87
2023-05-16T05:18:02.090Z,8.81
2023-05-16T05:19:06.902Z,8.85
2023-05-16T05:20:10.504Z,8.92
2023-05-16T05:21:12.725Z,8.97
2023-05-16T05:22:15.259Z,9.04
2023-05-16T05:23:17.447Z,8.94
2023-05-16T05:24:19.731Z,8.97
2023-05-16T05:25:22.221Z,9.03
2023-05-16T05:26:26.198Z,9.05
2023-05-16T05:27:28.703Z,9.13
2023-05-16T05:28:30.877Z,9.16
2023-05-16T05:29:33.042Z,9.18
2023-05-16T05:30:35.181Z,9.24
2023-05-16T05:31:37.355Z,9.24
2023-05-16T05:32:39.601Z,9.28
2023-05-16T05:33:42.476Z,9.36
2023-05-16T05:34:44.615Z,9.41
2023-05-16T05:35:46.742Z,9.45
2023-05-16T05:36:49.166Z,9.46
2023-05-16T05:37:52.078Z,9.50
2023-05-16T05:38:54.436Z,9.53
2023-05-16T05:39:56.863Z,9.50
2023-05-16T05:40:59.003Z,9.48
2023-05-16T05:42:03.606Z,9.53
2023-05-16T05:43:05.860Z,9.54
2023-05-16T05:44:08.002Z,9.68
2023-05-16T05:45:10.642Z,9.72
2023-05-16T05:46:12.895Z,9.77
2023-05-16T05:47:15.519Z,9.85
2023-05-16T05:48:17.732Z,9.85
2023-05-16T05:49:20.040Z,9.86
2023-05-16T05:50:22.327Z,9.85
2023-05-16T05:51:25.810Z,9.91
2023-05-16T05:52:28.434Z,9.97
2023-05-16T05:53:30.675Z,10.05
2023-05-16T05:54:33.436Z,10.18
2023-05-16T05:55:35.827Z,10.26
2023-05-16T05:56:37.982Z,10.33
2023-05-16T05:57:40.133Z,10.43
2023-05-16T05:58:42.480Z,10.59
2023-05-16T05:59:44.722Z,10.87
2023-05-16T06:00:47.069Z,11.08
2023-05-16T06:01:52.773Z,11.30
2023-05-16T06:02:55.694Z,11.49
2023-05-16T06:03:59.268Z,11.67
2023-05-16T06:05:03.058Z,11.95
2023-05-16T06:06:05.883Z,12.42
2023-05-16T06:07:08.290Z,12.91
2023-05-16T06:08:10.984Z,13.24
2023-05-16T06:09:16.318Z,13.67
2023-05-16T06:10:18.523Z,14.19
2023-05-16T06:11:21.546Z,14.51
2023-05-16T06:12:23.668Z,15.08
2023-05-16T06:13:25.879Z,15.32
2023-05-16T06:14:28.184Z,15.75
2023-05-16T06:15:30.696Z,15.75
2023-05-16T06:16:32.958Z,15.69
2023-05-16T06:17:35.197Z,15.72
2023-05-16T06:18:37.476Z,15.49
2023-05-16T06:19:39.665Z,15.23
2023-05-16T06:20:41.824Z,15.07
2023-05-16T06:21:44.151Z,15.10
2023-05-16T06:22:46.329Z,14.74
2023-05-16T06:23:48.462Z,15.08
2023-05-16T06:24:50.729Z,14.70
2023-05-16T06:25:52.951Z,15.21
2023-05-16T06:26:55.117Z,15.62
2023-05-16T06:27:57.371Z,16.04
2023-05-16T06:28:59.491Z,15.78
2023-05-16T06:30:01.849Z,15.74
2023-05-16T06:31:04.094Z,15.84
2023-05-16T06:32:06.630Z,15.73
2023-05-16T06:33:08.909Z,15.96
2023-05-16T06:34:11.278Z,15.93
2023-05-16T06:35:13.462Z,15.94
2023-05-16T06:36:15.804Z,16.21
2023-05-16T06:37:18.009Z,16.12
2023-05-16T06:38:20.142Z,15.52
2023-05-16T06:39:22.343Z,14.61
2023-05-16T06:40:24.770Z,14.30
2023-05-16T06:41:26.963Z,14.17
2023-05-16T06:42:29.138Z,14.07
2023-05-16T06:43:31.327Z,14.06
2023-05-16T06:44:33.594Z,14.04
2023-05-16T06:45:35.782Z,13.89
2023-05-16T06:46:38.311Z,13.34
2023-05-16T06:47:40.604Z,13.37
2023-05-16T06:48:42.802Z,13.12
2023-05-16T06:49:45.019Z,13.07
2023-05-16T06:50:48.903Z,12.90
2023-05-16T06:51:51.146Z,13.18
2023-05-16T06:52:53.351Z,13.75
2023-05-16T06:53:55.524Z,14.63
2023-05-16T06:54:57.699Z,15.20
2023-05-16T06:55:59.997Z,15.08
2023-05-16T06:57:03.529Z,14.76
2023-05-16T06:58:05.769Z,14.67
2023-05-16T06:59:08.049Z,14.65
2023-05-16T07:00:10.658Z,14.69
2023-05-16T07:01:13.104Z,15.01
2023-05-16T07:02:15.350Z,14.80
2023-05-16T07:03:17.701Z,14.94
2023-05-16T07:04:19.989Z,14.67
2023-05-16T07:05:22.198Z,14.37
2023-05-16T07:06:24.408Z,14.20
2023-05-16T07:07:26.625Z,14.17
2023-05-16T07:08:28.887Z,14.12
2023-05-16T07:09:31.336Z,13.92
2023-05-16T07:10:33.517Z,14.59
2023-05-16T07:11:35.748Z,15.27
2023-05-16T07:12:38.512Z,15.20
2023-05-16T07:13:40.822Z,15.85
2023-05-16T07:14:43.639Z,16.62
2023-05-16T07:15:45.823Z,17.25
2023-05-16T07:16:48.096Z,17.44
2023-05-16T07:17:51.037Z,17.70
2023-05-16T07:18:53.295Z,17.92
2023-05-16T07:19:55.593Z,18.31
2023-05-16T07:20:57.985Z,18.72
2023-05-16T07:22:00.201Z,18.78
2023-05-16T07:23:02.383Z,19.14
2023-05-16T07:24:04.946Z,19.23
2023-05-16T07:25:12.474Z,18.15
2023-05-16T07:26:14.773Z,18.30
2023-05-16T07:27:16.976Z,18.96
2023-05-16T07:28:19.283Z,19.70
2023-05-16T07:29:21.466Z,20.43
2023-05-16T07:30:23.754Z,20.32
2023-05-16T07:31:25.989Z,20.70
2023-05-16T07:32:28.498Z,21.15
2023-05-16T07:33:30.757Z,20.45
2023-05-16T07:34:32.893Z,20.03
2023-05-16T07:35:35.153Z,19.34
2023-05-16T07:36:37.432Z,18.21
2023-05-16T07:37:42.468Z,17.59
2023-05-16T07:38:45.228Z,17.58
2023-05-16T07:39:47.516Z,17.46
2023-05-16T07:40:49.809Z,17.29
2023-05-16T07:41:52.135Z,16.35
2023-05-16T07:42:54.276Z,15.56
2023-05-16T07:43:56.483Z,15.10
2023-05-16T07:44:58.694Z,14.91
2023-05-16T07:46:02.080Z,14.34
2023-05-16T07:47:04.446Z,14.08
2023-05-16T07:48:06.703Z,13.70
2023-05-16T07:49:08.914Z,14.04
2023-05-16T07:50:11.309Z,14.46
2023-05-16T07:51:13.563Z,15.40
2023-05-16T07:52:15.922Z,16.27
2023-05-16T07:53:18.124Z,16.80
2023-05-16T07:54:20.425Z,17.74
2023-05-16T07:55:22.653Z,18.79
2023-05-16T07:56:24.998Z,19.49
2023-05-16T07:57:27.566Z,19.62
2023-05-16T07:58:29.998Z,19.76
2023-05-16T07:59:32.285Z,18.91
2023-05-16T08:00:34.511Z,18.34
2023-05-16T08:01:37.478Z,18.57
2023-05-16T08:02:39.975Z,19.38
2023-05-16T08:03:42.394Z,19.83
2023-05-16T08:04:44.692Z,20.73
2023-05-16T08:05:48.897Z,20.51
2023-05-16T08:06:51.135Z,20.87
2023-05-16T08:07:53.330Z,20.21
2023-05-16T08:08:56.046Z,20.51
2023-05-16T08:09:58.227Z,20.16
2023-05-16T08:11:00.376Z,20.26
2023-05-16T08:12:03.824Z,19.98
2023-05-16T08:13:06.427Z,19.67
2023-05-16T08:14:08.601Z,19.50
2023-05-16T08:15:11.218Z,18.86
2023-05-16T08:16:13.453Z,18.43
2023-05-16T08:17:15.914Z,18.53
2023-05-16T08:18:20.051Z,18.18
2023-05-16T08:19:24.463Z,18.12
2023-05-16T08:20:27.026Z,18.97
2023-05-16T08:21:30.802Z,19.22
2023-05-16T08:22:33.527Z,19.69
2023-05-16T08:23:36.357Z,20.41
2023-05-16T08:24:38.774Z,20.94
2023-05-16T08:25:41.038Z,20.48
2023-05-16T08:26:43.312Z,20.44
2023-05-16T08:27:46.535Z,19.56
2023-05-16T08:28:49.142Z,19.00
2023-05-16T08:29:51.339Z,18.00
2023-05-16T08:30:53.530Z,17.36
2023-05-16T08:31:55.761Z,17.26
2023-05-16T08:32:58.070Z,16.86
2023-05-16T08:34:01.753Z,17.32
2023-05-16T08:35:04.171Z,18.08
2023-05-16T08:36:06.687Z,18.69
2023-05-16T08:37:08.866Z,18.90
2023-05-16T08:38:11.275Z,19.56
2023-05-16T08:39:13.490Z,19.86
2023-05-16T08:40:16.293Z,19.67
2023-05-16T08:41:18.572Z,20.36
2023-05-16T08:42:20.966Z,20.85
2023-05-16T08:43:23.506Z,21.80
2023-05-16T08:44:26.491Z,22.23
2023-05-16T08:45:30.733Z,22.88
2023-05-16T08:46:35.842Z,22.15
2023-05-16T08:47:41.574Z,21.21
2023-05-16T08:48:47.024Z,20.56
2023-05-16T08:49:51.692Z,20.11
2023-05-16T08:50:54.079Z,19.28
2023-05-16T08:51:59.273Z,19.27
2023-05-16T08:53:07.162Z,19.79
2023-05-16T08:54:13.653Z,20.37
2023-05-16T08:55:17.055Z,20.21
2023-05-16T08:56:22.238Z,20.65
2023-05-16T08:57:24.670Z,21.40
2023-05-16T08:58:28.119Z,22.05
2023-05-16T08:59:31.526Z,22.72
2023-05-16T09:00:33.906Z,22.00
2023-05-16T09:01:39.416Z,22.12
2023-05-16T09:02:43.139Z,21.99
2023-05-16T09:03:46.247Z,22.73
2023-05-16T09:04:49.497Z,22.05
2023-05-16T09:05:52.643Z,21.40
2023-05-16T09:06:54.983Z,21.27
2023-05-16T09:07:57.227Z,21.92
2023-05-16T09:08:59.469Z,22.47
2023-05-16T09:10:01.712Z,22.93
2023-05-16T09:11:04.218Z,23.00
2023-05-16T09:12:06.745Z,22.75
2023-05-16T09:13:08.932Z,22.52
2023-05-16T09:14:11.469Z,21.97
2023-05-16T09:15:13.791Z,21.25
2023-05-16T09:16:17.969Z,21.93
2023-05-16T09:17:28.737Z,22.15
2023-05-16T09:18:43.127Z,22.65
2023-05-16T09:19:45.416Z,22.44
2023-05-16T09:20:50.093Z,22.62
2023-05-16T09:21:52.506Z,23.20
2023-05-16T09:22:57.107Z,24.25
2023-05-16T09:24:09.570Z,25.02
2023-05-16T09:26:22.018Z,23.92
2023-05-16T09:27:24.291Z,22.55
2023-05-16T09:28:26.612Z,21.78
2023-05-16T09:29:29.366Z,19.44
2023-05-16T09:30:35.160Z,19.50
2023-05-16T09:31:38.408Z,19.57
2023-05-16T09:32:44.973Z,18.53
2023-05-16T09:33:48.252Z,17.25
2023-05-16T09:34:54.179Z,16.19
2023-05-16T09:36:00.572Z,15.63
2023-05-16T09:37:02.815Z,14.75
2023-05-16T09:38:05.071Z,14.28
2023-05-16T09:39:07.850Z,13.99
2023-05-16T09:40:10.454Z,13.80
2023-05-16T09:41:12.754Z,13.80
2023-05-16T09:42:16.450Z,13.59
2023-05-16T09:43:25.640Z,14.17
2023-05-16T09:44:28.326Z,14.42
2023-05-16T09:45:32.011Z,14.99
2023-05-16T09:46:36.411Z,16.16
2023-05-16T09:47:46.412Z,17.29
2023-05-16T09:48:49.374Z,18.61
2023-05-16T09:49:53.633Z,20.21
2023-05-16T09:50:56.989Z,20.71
2023-05-16T09:52:05.150Z,21.95
2023-05-16T09:53:07.954Z,21.82
2023-05-16T09:54:10.699Z,21.79
2023-05-16T09:55:13.312Z,21.81
2023-05-16T09:56:16.870Z,22.42
2023-05-16T09:57:23.633Z,22.53
2023-05-16T09:58:30.280Z,22.31
2023-05-16T09:59:39.725Z,23.20
2023-05-16T10:00:42.086Z,23.08
2023-05-16T10:01:45.194Z,23.75
2023-05-16T10:02:49.743Z,23.50
2023-05-16T10:03:52.481Z,24.17
2023-05-16T10:04:55.330Z,23.91
2023-05-16T10:05:57.993Z,23.61
2023-05-16T10:07:03.302Z,22.59
2023-05-16T10:08:06.488Z,22.39
2023-05-16T10:09:11.903Z,23.02
2023-05-16T10:10:15.069Z,22.52
2023-05-16T10:11:19.091Z,22.39
2023-05-16T10:12:28.306Z,22.78
2023-05-16T10:13:33.845Z,23.56
2023-05-16T10:14:37.880Z,23.93
2023-05-16T10:15:41.167Z,24.05
2023-05-16T10:16:47.147Z,24.13
2023-05-16T10:17:54.978Z,24.19
2023-05-16T10:18:57.904Z,22.26
2023-05-16T10:20:05.778Z,20.92
2023-05-16T10:21:11.984Z,20.55
2023-05-16T10:22:16.647Z,19.85
2023-05-16T10:23:20.601Z,18.86
2023-05-16T10:24:32.655Z,17.86
2023-05-16T10:25:41.133Z,17.39
2023-05-16T10:26:43.548Z,17.31
2023-05-16T10:27:47.424Z,16.70
2023-05-16T10:28:51.042Z,16.17
2023-05-16T10:29:55.026Z,15.83
2023-05-16T10:30:57.941Z,15.53
2023-05-16T10:32:00.607Z,15.43
2023-05-16T10:33:04.406Z,15.32
2023-05-16T10:34:07.190Z,15.35
2023-05-16T10:35:10.752Z,15.54
2023-05-16T10:36:13.943Z,15.77
2023-05-16T10:37:16.123Z,16.65
2023-05-16T10:38:21.224Z,17.68
2023-05-16T10:39:24.295Z,18.76
2023-05-16T10:40:28.586Z,20.02
2023-05-16T10:41:31.638Z,20.82
2023-05-16T10:42:34.184Z,21.23
2023-05-16T10:43:36.810Z,21.00
2023-05-16T10:44:39.335Z,20.81
2023-05-16T10:45:44.409Z,20.95
2023-05-16T10:46:49.549Z,21.78
2023-05-16T10:47:55.807Z,21.87
2023-05-16T10:48:58.829Z,21.74
2023-05-16T10:50:03.663Z,20.90
2023-05-16T10:51:38.794Z,20.70
2023-05-16T10:52:41.054Z,20.29
2023-05-16T10:53:44.060Z,20.06
2023-05-16T10:54:52.241Z,19.25
2023-05-16T10:56:00.873Z,18.53
2023-05-16T10:57:12.061Z,18.18
2023-05-16T10:58:19.255Z,18.16
2023-05-16T10:59:26.135Z,17.92
2023-05-16T11:00:30.943Z,17.16
2023-05-16T11:01:34.746Z,16.62
2023-05-16T11:02:41.701Z,16.33
2023-05-16T11:04:00.015Z,15.62
2023-05-16T11:05:03.068Z,14.89
2023-05-16T11:06:06.187Z,14.44
2023-05-16T11:07:08.774Z,14.17
2023-05-16T11:08:11.660Z,13.81
2023-05-16T11:09:14.074Z,13.64
2023-05-16T11:10:17.052Z,14.50
2023-05-16T11:11:53.509Z,15.93
2023-05-16T11:13:03.461Z,17.22
2023-05-16T11:14:05.826Z,18.04
2023-05-16T11:15:26.606Z,19.72
2023-05-16T11:16:32.310Z,20.18
2023-05-16T11:17:41.114Z,21.28
2023-05-16T11:18:50.858Z,22.18
2023-05-16T11:20:01.014Z,22.49
2023-05-16T11:21:04.424Z,22.54
2023-05-16T11:22:19.467Z,22.77
2023-05-16T11:23:23.789Z,22.83
2023-05-16T11:24:30.941Z,23.10
2023-05-16T11:25:42.247Z,23.63
2023-05-16T11:26:44.475Z,24.17
2023-05-16T11:27:48.155Z,24.43
2023-05-16T11:28:50.776Z,24.68
2023-05-16T11:29:54.518Z,23.97
2023-05-16T11:30:59.925Z,23.01
2023-05-16T11:32:04.968Z,22.41
2023-05-16T11:33:07.459Z,21.09
2023-05-16T11:34:09.975Z,19.97
2023-05-16T11:35:14.928Z,19.41
2023-05-16T11:36:17.360Z,18.67
2023-05-16T11:37:20.245Z,18.30
2023-05-16T11:38:22.493Z,18.01
2023-05-16T11:39:25.316Z,17.51
2023-05-16T11:40:27.564Z,17.25
2023-05-16T11:41:30.340Z,16.67
2023-05-16T11:42:35.375Z,15.39
2023-05-16T11:43:40.623Z,14.44
2023-05-16T11:44:42.923Z,13.80
2023-05-16T11:45:45.848Z,13.66
2023-05-16T11:46:48.127Z,14.05
2023-05-16T11:47:50.685Z,14.82
2023-05-16T11:48:53.168Z,15.39
2023-05-16T11:49:58.471Z,15.29
2023-05-16T11:51:01.023Z,15.33
2023-05-16T11:52:04.338Z,15.46
2023-05-16T11:53:09.045Z,15.21
2023-05-16T11:54:12.955Z,15.20
2023-05-16T11:55:28.097Z,15.08
2023-05-16T11:56:32.351Z,15.15
2023-05-16T11:57:34.656Z,14.90
2023-05-16T11:58:38.523Z,15.11
2023-05-16T11:59:41.527Z,15.20
2023-05-16T12:00:51.370Z,15.37
2023-05-16T12:01:54.710Z,15.30
2023-05-16T12:03:03.227Z,15.31
2023-05-16T12:04:13.760Z,15.27
2023-05-16T12:05:18.030Z,15.13
2023-05-16T12:06:20.594Z,15.09
2023-05-16T12:07:28.519Z,15.66
2023-05-16T12:08:31.305Z,16.27
2023-05-16T12:09:33.518Z,17.06
2023-05-16T12:10:35.718Z,17.41
2023-05-16T12:11:42.368Z,17.53
2023-05-16T12:12:47.752Z,17.04
2023-05-16T12:13:50.516Z,16.98
2023-05-16T12:14:52.747Z,16.64
2023-05-16T12:15:55.386Z,16.41
2023-05-16T12:16:58.278Z,15.97
2023-05-16T12:18:00.867Z,16.22
2023-05-16T12:19:05.138Z,16.42
2023-05-16T12:20:14.470Z,17.25
2023-05-16T12:21:17.378Z,17.99
2023-05-16T12:22:23.405Z,18.90
2023-05-16T12:23:26.872Z,18.74
2023-05-16T12:24:32.460Z,19.24
2023-05-16T12:25:41.828Z,19.80
2023-05-16T12:26:44.722Z,20.16
2023-05-16T12:27:47.038Z,20.87
2023-05-16T12:28:56.293Z,21.01
2023-05-16T12:29:58.873Z,19.85
2023-05-16T12:31:01.155Z,18.77
2023-05-16T12:32:03.486Z,18.72
2023-05-16T12:33:11.709Z,19.37
2023-05-16T12:34:18.956Z,19.73
2023-05-16T12:35:21.627Z,19.77
2023-05-16T12:36:25.004Z,19.65
2023-05-16T12:37:27.407Z,19.47
2023-05-16T12:38:29.601Z,19.22
2023-05-16T12:39:38.682Z,19.77
2023-05-16T12:40:42.949Z,20.37
2023-05-16T12:41:45.193Z,20.22
2023-05-16T12:42:54.041Z,20.30
2023-05-16T12:44:17.727Z,19.63
2023-05-16T12:45:19.994Z,18.71
2023-05-16T12:46:22.508Z,18.07
2023-05-16T12:47:36.148Z,17.21
2023-05-16T12:48:48.239Z,16.43
2023-05-16T12:49:51.375Z,15.86
2023-05-16T12:50:53.594Z,15.39
2023-05-16T12:51:57.236Z,14.73
2023-05-16T12:53:01.235Z,13.86
2023-05-16T12:54:11.826Z,13.00
2023-05-16T12:55:14.522Z,12.48
2023-05-16T12:56:16.698Z,12.30
2023-05-16T12:57:19.998Z,11.85
2023-05-16T12:58:22.404Z,11.81
2023-05-16T12:59:24.731Z,11.83
2023-05-16T13:00:27.186Z,11.77
2023-05-16T13:01:29.896Z,11.77
2023-05-16T13:02:32.434Z,12.06
2023-05-16T13:03:36.225Z,12.74
2023-05-16T13:04:38.770Z,13.58
2023-05-16T13:05:41.298Z,14.04
2023-05-16T13:06:57.790Z,14.50
2023-05-16T13:08:01.374Z,15.01
2023-05-16T13:09:03.607Z,15.46
2023-05-16T13:10:07.222Z,15.48
2023-05-16T13:11:09.394Z,15.56
2023-05-16T13:12:11.597Z,15.48
2023-05-16T13:13:24.958Z,15.57
2023-05-16T13:14:31.651Z,15.90
2023-05-16T13:15:33.924Z,15.81
2023-05-16T13:16:36.358Z,16.26
2023-05-16T13:17:39.834Z,16.14
2023-05-16T13:18:42.090Z,16.17
2023-05-16T13:19:44.865Z,16.47
2023-05-16T13:20:48.002Z,16.88
2023-05-16T13:21:50.198Z,17.38
2023-05-16T13:22:52.467Z,17.03
2023-05-16T13:23:54.734Z,16.80
2023-05-16T13:24:56.931Z,16.85
2023-05-16T13:25:59.484Z,16.93
2023-05-16T13:27:01.707Z,16.95
2023-05-16T13:28:04.764Z,16.93
2023-05-16T13:29:09.649Z,16.85
2023-05-16T13:30:12.092Z,16.93
2023-05-16T13:31:14.449Z,16.94
2023-05-16T13:32:17.875Z,17.21
2023-05-16T13:33:20.209Z,17.15
2023-05-16T13:34:22.432Z,16.92
2023-05-16T13:35:24.660Z,16.98
2023-05-16T13:36:26.974Z,16.43
2023-05-16T13:37:30.122Z,16.43
2023-05-16T13:38:32.558Z,16.53
2023-05-16T13:39:34.798Z,16.53
2023-05-16T13:40:37.051Z,16.30
2023-05-16T13:41:40.783Z,15.86
2023-05-16T13:42:42.954Z,15.86
2023-05-16T13:43:45.138Z,15.73
2023-05-16T13:44:47.454Z,15.25
2023-05-16T13:45:49.713Z,15.18
2023-05-16T13:46:52.071Z,15.31
2023-05-16T13:47:54.462Z,15.30
2023-05-16T13:48:56.729Z,15.13
2023-05-16T13:50:03.342Z,15.20
2023-05-16T13:51:07.267Z,15.67
2023-05-16T13:52:09.503Z,15.78
2023-05-16T13:53:11.768Z,16.09
2023-05-16T13:54:13.972Z,16.47